sensor_id;sensor_type;location;lat;lon;timestamp;P1;durP1;ratioP1;P2;durP2;ratioP2
64110;SDS011;50401;48.188;11.566;2022-07-23T00:01:19;18.77;;;8.85;;
64110;SDS011;50401;48.188;11.566;2022-07-23T00:03:48;15.00;;;9.48;;
64110;SDS011;50401;48.188;11.566;2022-07-23T00:06:14;12.43;;;8.73;;
64110;SDS011;50401;48.188;11.566;2022-07-23T00:08:40;26.70;;;9.43;;
64110;SDS011;50401;48.188;11.566;2022-07-23T00:11:06;12.35;;;9.00;;
64110;SDS011;50401;48.188;11.566;2022-07-23T00:13:31;13.23;;;8.98;;
64110;SDS011;50401;48.188;11.566;2022-07-23T00:15:56;19.98;;;9.48;;
64110;SDS011;50401;48.188;11.566;2022-07-23T00:18:22;14.32;;;9.43;;
64110;SDS011;50401;48.188;11.566;2022-07-23T00:20:47;16.05;;;8.90;;
64110;SDS011;50401;48.188;11.566;2022-07-23T00:23:13;15.98;;;9.05;;
64110;SDS011;50401;48.188;11.566;2022-07-23T00:25:38;17.38;;;8.73;;
64110;SDS011;50401;48.188;11.566;2022-07-23T00:28:04;18.35;;;8.50;;
64110;SDS011;50401;48.188;11.566;2022-07-23T00:30:30;16.70;;;8.98;;
64110;SDS011;50401;48.188;11.566;2022-07-23T00:32:57;13.02;;;8.90;;
64110;SDS011;50401;48.188;11.566;2022-07-23T00:35:29;16.15;;;9.38;;
64110;SDS011;50401;48.188;11.566;2022-07-23T00:40:22;11.77;;;8.20;;
64110;SDS011;50401;48.188;11.566;2022-07-23T00:42:48;11.68;;;8.25;;
64110;SDS011;50401;48.188;11.566;2022-07-23T00:45:13;13.35;;;9.13;;
64110;SDS011;50401;48.188;11.566;2022-07-23T00:47:39;11.90;;;8.38;;
64110;SDS011;50401;48.188;11.566;2022-07-23T00:50:05;9.63;;;8.40;;
64110;SDS011;50401;48.188;11.566;2022-07-23T00:52:33;13.52;;;7.82;;
64110;SDS011;50401;48.188;11.566;2022-07-23T00:54:59;10.45;;;8.35;;
64110;SDS011;50401;48.188;11.566;2022-07-23T00:57:25;13.57;;;8.95;;
64110;SDS011;50401;48.188;11.566;2022-07-23T00:59:51;11.25;;;8.85;;
64110;SDS011;50401;48.188;11.566;2022-07-23T01:02:16;11.85;;;8.55;;
64110;SDS011;50401;48.188;11.566;2022-07-23T01:04:42;13.63;;;8.75;;
64110;SDS011;50401;48.188;11.566;2022-07-23T01:07:07;17.88;;;8.00;;
64110;SDS011;50401;48.188;11.566;2022-07-23T01:09:32;16.48;;;8.38;;
64110;SDS011;50401;48.188;11.566;2022-07-23T01:11:58;17.05;;;7.63;;
64110;SDS011;50401;48.188;11.566;2022-07-23T01:14:24;11.55;;;8.52;;
64110;SDS011;50401;48.188;11.566;2022-07-23T01:16:50;12.13;;;8.82;;
64110;SDS011;50401;48.188;11.566;2022-07-23T01:19:16;12.27;;;9.63;;
64110;SDS011;50401;48.188;11.566;2022-07-23T01:21:49;17.85;;;10.85;;
64110;SDS011;50401;48.188;11.566;2022-07-23T01:24:15;17.90;;;10.88;;
64110;SDS011;50401;48.188;11.566;2022-07-23T01:26:43;16.17;;;11.40;;
64110;SDS011;50401;48.188;11.566;2022-07-23T01:29:09;25.63;;;11.17;;
64110;SDS011;50401;48.188;11.566;2022-07-23T01:31:35;22.40;;;9.05;;
64110;SDS011;50401;48.188;11.566;2022-07-23T01:34:01;22.40;;;9.55;;
64110;SDS011;50401;48.188;11.566;2022-07-23T01:36:27;30.63;;;10.13;;
64110;SDS011;50401;48.188;11.566;2022-07-23T01:38:52;18.00;;;8.88;;
64110;SDS011;50401;48.188;11.566;2022-07-23T01:41:18;17.38;;;9.07;;
64110;SDS011;50401;48.188;11.566;2022-07-23T01:43:43;13.50;;;7.65;;
64110;SDS011;50401;48.188;11.566;2022-07-23T01:46:09;22.52;;;8.10;;
64110;SDS011;50401;48.188;11.566;2022-07-23T01:51:13;18.88;;;7.47;;
64110;SDS011;50401;48.188;11.566;2022-07-23T01:53:38;24.60;;;8.35;;
64110;SDS011;50401;48.188;11.566;2022-07-23T01:56:04;19.17;;;8.10;;
64110;SDS011;50401;48.188;11.566;2022-07-23T01:58:29;17.02;;;7.28;;
64110;SDS011;50401;48.188;11.566;2022-07-23T02:00:55;14.52;;;7.97;;
64110;SDS011;50401;48.188;11.566;2022-07-23T02:03:21;14.80;;;7.85;;
64110;SDS011;50401;48.188;11.566;2022-07-23T02:05:46;11.93;;;7.22;;
64110;SDS011;50401;48.188;11.566;2022-07-23T02:08:12;16.08;;;8.98;;
64110;SDS011;50401;48.188;11.566;2022-07-23T02:10:37;15.55;;;9.07;;
64110;SDS011;50401;48.188;11.566;2022-07-23T02:13:03;14.85;;;8.23;;
64110;SDS011;50401;48.188;11.566;2022-07-23T02:15:28;13.63;;;8.10;;
64110;SDS011;50401;48.188;11.566;2022-07-23T02:17:54;17.63;;;8.60;;
64110;SDS011;50401;48.188;11.566;2022-07-23T02:20:19;16.05;;;9.15;;
64110;SDS011;50401;48.188;11.566;2022-07-23T02:22:45;15.27;;;8.63;;
64110;SDS011;50401;48.188;11.566;2022-07-23T02:25:10;17.25;;;8.32;;
64110;SDS011;50401;48.188;11.566;2022-07-23T02:27:36;20.33;;;8.35;;
64110;SDS011;50401;48.188;11.566;2022-07-23T02:30:03;20.05;;;8.57;;
64110;SDS011;50401;48.188;11.566;2022-07-23T02:32:29;18.92;;;7.97;;
64110;SDS011;50401;48.188;11.566;2022-07-23T02:34:54;15.25;;;7.45;;
64110;SDS011;50401;48.188;11.566;2022-07-23T02:37:20;12.10;;;6.40;;
64110;SDS011;50401;48.188;11.566;2022-07-23T02:39:45;9.43;;;6.20;;
64110;SDS011;50401;48.188;11.566;2022-07-23T02:42:10;10.70;;;5.90;;
64110;SDS011;50401;48.188;11.566;2022-07-23T02:44:36;12.65;;;6.43;;
64110;SDS011;50401;48.188;11.566;2022-07-23T02:47:01;8.90;;;5.47;;
64110;SDS011;50401;48.188;11.566;2022-07-23T02:49:27;10.15;;;5.40;;
64110;SDS011;50401;48.188;11.566;2022-07-23T02:51:52;6.40;;;5.32;;
64110;SDS011;50401;48.188;11.566;2022-07-23T02:54:18;7.85;;;5.20;;
64110;SDS011;50401;48.188;11.566;2022-07-23T02:56:44;8.13;;;5.75;;
64110;SDS011;50401;48.188;11.566;2022-07-23T02:59:09;7.00;;;5.28;;
64110;SDS011;50401;48.188;11.566;2022-07-23T03:01:35;13.30;;;5.82;;
64110;SDS011;50401;48.188;11.566;2022-07-23T03:04:01;11.35;;;5.78;;
64110;SDS011;50401;48.188;11.566;2022-07-23T03:06:26;10.50;;;5.75;;
64110;SDS011;50401;48.188;11.566;2022-07-23T03:08:52;10.35;;;5.78;;
64110;SDS011;50401;48.188;11.566;2022-07-23T03:11:17;11.18;;;6.50;;
64110;SDS011;50401;48.188;11.566;2022-07-23T03:13:42;12.45;;;6.75;;
64110;SDS011;50401;48.188;11.566;2022-07-23T03:16:08;11.10;;;6.05;;
64110;SDS011;50401;48.188;11.566;2022-07-23T03:18:33;18.67;;;5.63;;
64110;SDS011;50401;48.188;11.566;2022-07-23T03:20:59;11.40;;;5.05;;
64110;SDS011;50401;48.188;11.566;2022-07-23T03:23:24;11.77;;;6.35;;
64110;SDS011;50401;48.188;11.566;2022-07-23T03:25:50;13.75;;;7.47;;
64110;SDS011;50401;48.188;11.566;2022-07-23T03:28:16;16.38;;;7.20;;
64110;SDS011;50401;48.188;11.566;2022-07-23T03:30:42;9.93;;;6.65;;
64110;SDS011;50401;48.188;11.566;2022-07-23T03:33:10;8.30;;;6.03;;
64110;SDS011;50401;48.188;11.566;2022-07-23T03:35:35;8.73;;;5.93;;
64110;SDS011;50401;48.188;11.566;2022-07-23T03:38:01;6.30;;;4.85;;
64110;SDS011;50401;48.188;11.566;2022-07-23T03:40:26;8.70;;;5.43;;
64110;SDS011;50401;48.188;11.566;2022-07-23T03:42:51;10.63;;;5.30;;
64110;SDS011;50401;48.188;11.566;2022-07-23T03:45:17;9.40;;;5.43;;
64110;SDS011;50401;48.188;11.566;2022-07-23T03:47:42;7.82;;;6.13;;
64110;SDS011;50401;48.188;11.566;2022-07-23T03:50:09;8.02;;;5.75;;
64110;SDS011;50401;48.188;11.566;2022-07-23T03:52:35;8.15;;;5.82;;
64110;SDS011;50401;48.188;11.566;2022-07-23T03:55:00;9.18;;;5.90;;
64110;SDS011;50401;48.188;11.566;2022-07-23T03:57:26;19.08;;;6.28;;
64110;SDS011;50401;48.188;11.566;2022-07-23T03:59:52;8.57;;;6.28;;
64110;SDS011;50401;48.188;11.566;2022-07-23T04:02:17;10.50;;;6.40;;
64110;SDS011;50401;48.188;11.566;2022-07-23T04:04:42;9.52;;;6.75;;
64110;SDS011;50401;48.188;11.566;2022-07-23T04:07:08;12.40;;;6.57;;
64110;SDS011;50401;48.188;11.566;2022-07-23T04:09:33;10.75;;;6.07;;
64110;SDS011;50401;48.188;11.566;2022-07-23T04:11:58;9.55;;;6.57;;
64110;SDS011;50401;48.188;11.566;2022-07-23T04:14:24;9.85;;;6.63;;
64110;SDS011;50401;48.188;11.566;2022-07-23T04:16:50;9.43;;;7.10;;
64110;SDS011;50401;48.188;11.566;2022-07-23T04:19:15;9.25;;;6.95;;
64110;SDS011;50401;48.188;11.566;2022-07-23T04:21:41;10.40;;;7.03;;
64110;SDS011;50401;48.188;11.566;2022-07-23T04:24:06;11.75;;;8.20;;
64110;SDS011;50401;48.188;11.566;2022-07-23T04:26:32;11.55;;;6.70;;
64110;SDS011;50401;48.188;11.566;2022-07-23T04:28:57;16.58;;;6.85;;
64110;SDS011;50401;48.188;11.566;2022-07-23T04:31:23;10.95;;;6.93;;
64110;SDS011;50401;48.188;11.566;2022-07-23T04:33:48;10.27;;;6.93;;
64110;SDS011;50401;48.188;11.566;2022-07-23T04:36:13;14.15;;;7.28;;
64110;SDS011;50401;48.188;11.566;2022-07-23T04:38:39;10.18;;;7.10;;
64110;SDS011;50401;48.188;11.566;2022-07-23T04:41:04;25.65;;;7.93;;
64110;SDS011;50401;48.188;11.566;2022-07-23T04:43:29;12.60;;;6.88;;
64110;SDS011;50401;48.188;11.566;2022-07-23T04:45:55;9.43;;;6.93;;
64110;SDS011;50401;48.188;11.566;2022-07-23T04:48:20;10.77;;;7.13;;
64110;SDS011;50401;48.188;11.566;2022-07-23T04:50:46;9.25;;;6.53;;
64110;SDS011;50401;48.188;11.566;2022-07-23T04:53:11;9.68;;;7.13;;
64110;SDS011;50401;48.188;11.566;2022-07-23T04:55:37;10.65;;;7.18;;
64110;SDS011;50401;48.188;11.566;2022-07-23T04:58:02;10.35;;;6.95;;
64110;SDS011;50401;48.188;11.566;2022-07-23T05:00:27;12.50;;;7.60;;
64110;SDS011;50401;48.188;11.566;2022-07-23T05:02:53;16.92;;;8.02;;
64110;SDS011;50401;48.188;11.566;2022-07-23T05:05:18;10.10;;;7.75;;
64110;SDS011;50401;48.188;11.566;2022-07-23T05:07:43;12.13;;;7.70;;
64110;SDS011;50401;48.188;11.566;2022-07-23T05:10:09;10.88;;;7.55;;
64110;SDS011;50401;48.188;11.566;2022-07-23T05:12:34;15.25;;;7.68;;
64110;SDS011;50401;48.188;11.566;2022-07-23T05:15:00;10.68;;;7.78;;
64110;SDS011;50401;48.188;11.566;2022-07-23T05:17:25;11.05;;;6.97;;
64110;SDS011;50401;48.188;11.566;2022-07-23T05:19:50;10.10;;;7.20;;
64110;SDS011;50401;48.188;11.566;2022-07-23T05:22:16;13.55;;;7.03;;
64110;SDS011;50401;48.188;11.566;2022-07-23T05:24:41;11.02;;;7.07;;
64110;SDS011;50401;48.188;11.566;2022-07-23T05:27:08;11.23;;;6.57;;
64110;SDS011;50401;48.188;11.566;2022-07-23T05:29:33;14.68;;;7.22;;
64110;SDS011;50401;48.188;11.566;2022-07-23T05:31:58;14.50;;;6.93;;
64110;SDS011;50401;48.188;11.566;2022-07-23T05:34:24;15.27;;;6.95;;
64110;SDS011;50401;48.188;11.566;2022-07-23T05:36:49;12.82;;;7.00;;
64110;SDS011;50401;48.188;11.566;2022-07-23T05:39:15;12.13;;;7.15;;
64110;SDS011;50401;48.188;11.566;2022-07-23T05:41:40;13.93;;;6.95;;
64110;SDS011;50401;48.188;11.566;2022-07-23T05:44:06;16.70;;;7.40;;
64110;SDS011;50401;48.188;11.566;2022-07-23T05:46:31;10.38;;;6.90;;
64110;SDS011;50401;48.188;11.566;2022-07-23T05:48:57;10.20;;;7.10;;
64110;SDS011;50401;48.188;11.566;2022-07-23T05:51:22;16.42;;;7.65;;
64110;SDS011;50401;48.188;11.566;2022-07-23T05:53:48;20.80;;;7.82;;
64110;SDS011;50401;48.188;11.566;2022-07-23T05:56:15;13.38;;;7.25;;
64110;SDS011;50401;48.188;11.566;2022-07-23T05:58:41;13.05;;;7.82;;
64110;SDS011;50401;48.188;11.566;2022-07-23T06:01:06;15.10;;;7.93;;
64110;SDS011;50401;48.188;11.566;2022-07-23T06:03:32;16.48;;;8.07;;
64110;SDS011;50401;48.188;11.566;2022-07-23T06:05:57;18.70;;;8.32;;
64110;SDS011;50401;48.188;11.566;2022-07-23T06:08:22;18.05;;;8.25;;
64110;SDS011;50401;48.188;11.566;2022-07-23T06:10:48;13.88;;;8.18;;
64110;SDS011;50401;48.188;11.566;2022-07-23T06:13:13;14.45;;;7.63;;
64110;SDS011;50401;48.188;11.566;2022-07-23T06:15:39;19.73;;;8.38;;
64110;SDS011;50401;48.188;11.566;2022-07-23T06:18:04;18.95;;;8.55;;
64110;SDS011;50401;48.188;11.566;2022-07-23T06:20:30;15.25;;;8.15;;
64110;SDS011;50401;48.188;11.566;2022-07-23T06:22:55;13.93;;;8.57;;
64110;SDS011;50401;48.188;11.566;2022-07-23T06:25:21;15.70;;;8.45;;
64110;SDS011;50401;48.188;11.566;2022-07-23T06:27:46;14.93;;;8.80;;
64110;SDS011;50401;48.188;11.566;2022-07-23T06:30:13;16.52;;;9.15;;
64110;SDS011;50401;48.188;11.566;2022-07-23T06:32:40;12.25;;;8.55;;
64110;SDS011;50401;48.188;11.566;2022-07-23T06:35:06;12.48;;;8.75;;
64110;SDS011;50401;48.188;11.566;2022-07-23T06:37:32;14.00;;;9.30;;
64110;SDS011;50401;48.188;11.566;2022-07-23T06:39:57;18.80;;;9.43;;
64110;SDS011;50401;48.188;11.566;2022-07-23T06:42:23;33.17;;;21.17;;
64110;SDS011;50401;48.188;11.566;2022-07-23T06:44:48;16.05;;;10.02;;
64110;SDS011;50401;48.188;11.566;2022-07-23T06:47:13;14.27;;;9.18;;
64110;SDS011;50401;48.188;11.566;2022-07-23T06:49:39;15.18;;;9.07;;
64110;SDS011;50401;48.188;11.566;2022-07-23T06:52:06;20.27;;;10.43;;
64110;SDS011;50401;48.188;11.566;2022-07-23T06:54:32;21.55;;;10.90;;
64110;SDS011;50401;48.188;11.566;2022-07-23T06:56:57;24.38;;;10.15;;
64110;SDS011;50401;48.188;11.566;2022-07-23T06:59:22;22.20;;;11.63;;
64110;SDS011;50401;48.188;11.566;2022-07-23T07:01:48;20.60;;;10.93;;
64110;SDS011;50401;48.188;11.566;2022-07-23T07:04:13;21.85;;;10.57;;
64110;SDS011;50401;48.188;11.566;2022-07-23T07:06:39;16.70;;;10.38;;
64110;SDS011;50401;48.188;11.566;2022-07-23T07:09:04;18.30;;;8.52;;
64110;SDS011;50401;48.188;11.566;2022-07-23T07:11:29;15.15;;;8.77;;
64110;SDS011;50401;48.188;11.566;2022-07-23T07:13:55;14.63;;;8.90;;
64110;SDS011;50401;48.188;11.566;2022-07-23T07:16:20;14.75;;;8.70;;
64110;SDS011;50401;48.188;11.566;2022-07-23T07:18:45;20.58;;;9.20;;
64110;SDS011;50401;48.188;11.566;2022-07-23T07:21:11;26.42;;;9.25;;
64110;SDS011;50401;48.188;11.566;2022-07-23T07:23:37;15.43;;;8.68;;
64110;SDS011;50401;48.188;11.566;2022-07-23T07:26:02;12.90;;;8.93;;
64110;SDS011;50401;48.188;11.566;2022-07-23T07:28:27;16.52;;;9.25;;
64110;SDS011;50401;48.188;11.566;2022-07-23T07:30:53;11.35;;;8.48;;
64110;SDS011;50401;48.188;11.566;2022-07-23T07:33:18;18.27;;;8.98;;
64110;SDS011;50401;48.188;11.566;2022-07-23T07:35:44;14.95;;;9.18;;
64110;SDS011;50401;48.188;11.566;2022-07-23T07:38:09;15.70;;;9.25;;
64110;SDS011;50401;48.188;11.566;2022-07-23T07:40:35;15.90;;;9.13;;
64110;SDS011;50401;48.188;11.566;2022-07-23T07:43:00;18.17;;;9.23;;
64110;SDS011;50401;48.188;11.566;2022-07-23T07:45:28;20.25;;;9.05;;
64110;SDS011;50401;48.188;11.566;2022-07-23T07:47:53;15.77;;;8.95;;
64110;SDS011;50401;48.188;11.566;2022-07-23T07:50:19;16.17;;;9.40;;
64110;SDS011;50401;48.188;11.566;2022-07-23T07:52:45;14.95;;;9.00;;
64110;SDS011;50401;48.188;11.566;2022-07-23T07:55:11;15.02;;;9.07;;
64110;SDS011;50401;48.188;11.566;2022-07-23T07:57:37;11.77;;;8.95;;
64110;SDS011;50401;48.188;11.566;2022-07-23T08:00:06;19.02;;;9.60;;
64110;SDS011;50401;48.188;11.566;2022-07-23T08:02:42;15.98;;;10.50;;
64110;SDS011;50401;48.188;11.566;2022-07-23T08:05:14;31.38;;;10.40;;
64110;SDS011;50401;48.188;11.566;2022-07-23T08:07:43;13.35;;;9.15;;
64110;SDS011;50401;48.188;11.566;2022-07-23T08:10:08;19.83;;;9.90;;
64110;SDS011;50401;48.188;11.566;2022-07-23T08:12:51;20.88;;;9.63;;
64110;SDS011;50401;48.188;11.566;2022-07-23T08:15:19;24.90;;;10.32;;
64110;SDS011;50401;48.188;11.566;2022-07-23T08:17:46;17.63;;;10.40;;
64110;SDS011;50401;48.188;11.566;2022-07-23T08:20:12;20.33;;;9.07;;
64110;SDS011;50401;48.188;11.566;2022-07-23T08:22:46;14.65;;;9.48;;
64110;SDS011;50401;48.188;11.566;2022-07-23T08:25:11;12.95;;;9.15;;
64110;SDS011;50401;48.188;11.566;2022-07-23T08:27:37;10.27;;;8.75;;
64110;SDS011;50401;48.188;11.566;2022-07-23T08:30:03;15.57;;;9.27;;
64110;SDS011;50401;48.188;11.566;2022-07-23T08:32:29;25.23;;;10.70;;
64110;SDS011;50401;48.188;11.566;2022-07-23T08:34:54;21.35;;;11.07;;
64110;SDS011;50401;48.188;11.566;2022-07-23T08:37:20;20.55;;;9.55;;
64110;SDS011;50401;48.188;11.566;2022-07-23T08:39:45;17.23;;;10.27;;
64110;SDS011;50401;48.188;11.566;2022-07-23T08:42:11;20.95;;;11.20;;
64110;SDS011;50401;48.188;11.566;2022-07-23T08:44:39;23.92;;;10.32;;
64110;SDS011;50401;48.188;11.566;2022-07-23T08:47:10;19.52;;;11.13;;
64110;SDS011;50401;48.188;11.566;2022-07-23T08:49:37;13.75;;;10.50;;
64110;SDS011;50401;48.188;11.566;2022-07-23T08:52:02;14.50;;;9.82;;
64110;SDS011;50401;48.188;11.566;2022-07-23T08:54:29;13.30;;;9.43;;
64110;SDS011;50401;48.188;11.566;2022-07-23T08:56:55;18.40;;;10.05;;
64110;SDS011;50401;48.188;11.566;2022-07-23T08:59:20;16.02;;;10.27;;
64110;SDS011;50401;48.188;11.566;2022-07-23T09:01:45;19.63;;;9.32;;
64110;SDS011;50401;48.188;11.566;2022-07-23T09:04:11;13.38;;;9.25;;
64110;SDS011;50401;48.188;11.566;2022-07-23T09:06:38;18.00;;;9.13;;
64110;SDS011;50401;48.188;11.566;2022-07-23T09:09:16;12.97;;;9.30;;
64110;SDS011;50401;48.188;11.566;2022-07-23T09:11:45;14.65;;;9.60;;
64110;SDS011;50401;48.188;11.566;2022-07-23T09:14:11;20.27;;;8.88;;
64110;SDS011;50401;48.188;11.566;2022-07-23T09:16:37;15.48;;;9.73;;
64110;SDS011;50401;48.188;11.566;2022-07-23T09:19:03;14.07;;;9.50;;
64110;SDS011;50401;48.188;11.566;2022-07-23T09:21:31;12.63;;;9.05;;
64110;SDS011;50401;48.188;11.566;2022-07-23T09:24:04;18.48;;;9.30;;
64110;SDS011;50401;48.188;11.566;2022-07-23T09:26:47;20.35;;;9.82;;
64110;SDS011;50401;48.188;11.566;2022-07-23T09:29:24;25.70;;;9.25;;
64110;SDS011;50401;48.188;11.566;2022-07-23T09:31:52;14.90;;;8.23;;
64110;SDS011;50401;48.188;11.566;2022-07-23T09:34:21;14.20;;;8.45;;
64110;SDS011;50401;48.188;11.566;2022-07-23T09:36:49;13.38;;;9.02;;
64110;SDS011;50401;48.188;11.566;2022-07-23T09:39:21;15.75;;;8.30;;
64110;SDS011;50401;48.188;11.566;2022-07-23T09:41:51;14.38;;;8.15;;
64110;SDS011;50401;48.188;11.566;2022-07-23T09:44:19;15.80;;;8.73;;
64110;SDS011;50401;48.188;11.566;2022-07-23T09:46:49;16.75;;;8.65;;
64110;SDS011;50401;48.188;11.566;2022-07-23T09:49:22;17.08;;;10.60;;
64110;SDS011;50401;48.188;11.566;2022-07-23T09:54:25;14.38;;;8.90;;
64110;SDS011;50401;48.188;11.566;2022-07-23T09:56:52;14.20;;;8.80;;
64110;SDS011;50401;48.188;11.566;2022-07-23T09:59:18;14.82;;;7.93;;
64110;SDS011;50401;48.188;11.566;2022-07-23T10:01:48;10.57;;;7.90;;
64110;SDS011;50401;48.188;11.566;2022-07-23T10:04:15;11.63;;;8.50;;
64110;SDS011;50401;48.188;11.566;2022-07-23T10:06:40;13.68;;;8.25;;
64110;SDS011;50401;48.188;11.566;2022-07-23T10:09:08;14.43;;;8.52;;
64110;SDS011;50401;48.188;11.566;2022-07-23T10:11:40;12.98;;;7.22;;
64110;SDS011;50401;48.188;11.566;2022-07-23T10:14:06;16.08;;;6.70;;
64110;SDS011;50401;48.188;11.566;2022-07-23T10:16:33;17.60;;;7.53;;
64110;SDS011;50401;48.188;11.566;2022-07-23T10:18:58;14.70;;;8.20;;
64110;SDS011;50401;48.188;11.566;2022-07-23T10:21:38;13.23;;;6.97;;
64110;SDS011;50401;48.188;11.566;2022-07-23T10:37:34;15.68;;;7.82;;
64110;SDS011;50401;48.188;11.566;2022-07-23T10:40:13;20.30;;;7.20;;
64110;SDS011;50401;48.188;11.566;2022-07-23T10:42:43;9.30;;;6.65;;
64110;SDS011;50401;48.188;11.566;2022-07-23T10:45:26;11.48;;;7.03;;
64110;SDS011;50401;48.188;11.566;2022-07-23T10:47:52;14.85;;;7.20;;
64110;SDS011;50401;48.188;11.566;2022-07-23T10:57:55;10.68;;;6.95;;
64110;SDS011;50401;48.188;11.566;2022-07-23T11:00:22;8.70;;;6.43;;
64110;SDS011;50401;48.188;11.566;2022-07-23T11:02:50;12.35;;;6.75;;
64110;SDS011;50401;48.188;11.566;2022-07-23T11:05:18;12.30;;;6.78;;
64110;SDS011;50401;48.188;11.566;2022-07-23T11:10:38;10.43;;;6.38;;
64110;SDS011;50401;48.188;11.566;2022-07-23T11:36:57;12.88;;;7.03;;
64110;SDS011;50401;48.188;11.566;2022-07-23T11:39:24;8.88;;;6.63;;
64110;SDS011;50401;48.188;11.566;2022-07-23T11:41:51;12.83;;;7.30;;
64110;SDS011;50401;48.188;11.566;2022-07-23T11:44:27;12.90;;;7.38;;
64110;SDS011;50401;48.188;11.566;2022-07-23T11:46:57;9.80;;;6.78;;
64110;SDS011;50401;48.188;11.566;2022-07-23T11:49:24;9.88;;;6.88;;
64110;SDS011;50401;48.188;11.566;2022-07-23T11:52:05;12.07;;;7.10;;
64110;SDS011;50401;48.188;11.566;2022-07-23T11:54:31;23.35;;;8.15;;
64110;SDS011;50401;48.188;11.566;2022-07-23T11:56:58;13.27;;;7.43;;
64110;SDS011;50401;48.188;11.566;2022-07-23T11:59:24;12.13;;;7.28;;
64110;SDS011;50401;48.188;11.566;2022-07-23T12:01:56;12.60;;;7.50;;
64110;SDS011;50401;48.188;11.566;2022-07-23T12:04:23;12.50;;;7.82;;
64110;SDS011;50401;48.188;11.566;2022-07-23T12:06:48;14.95;;;8.80;;
64110;SDS011;50401;48.188;11.566;2022-07-23T12:09:13;10.80;;;8.15;;
64110;SDS011;50401;48.188;11.566;2022-07-23T12:11:39;13.50;;;7.88;;
64110;SDS011;50401;48.188;11.566;2022-07-23T12:14:04;13.68;;;8.50;;
64110;SDS011;50401;48.188;11.566;2022-07-23T12:16:30;12.68;;;7.90;;
64110;SDS011;50401;48.188;11.566;2022-07-23T12:18:56;13.25;;;8.68;;
64110;SDS011;50401;48.188;11.566;2022-07-23T12:21:21;21.08;;;9.15;;
64110;SDS011;50401;48.188;11.566;2022-07-23T12:23:48;16.27;;;9.15;;
64110;SDS011;50401;48.188;11.566;2022-07-23T12:26:14;12.57;;;9.05;;
64110;SDS011;50401;48.188;11.566;2022-07-23T12:28:42;12.73;;;8.50;;
64110;SDS011;50401;48.188;11.566;2022-07-23T12:31:17;14.07;;;8.25;;
64110;SDS011;50401;48.188;11.566;2022-07-23T12:33:51;15.98;;;8.52;;
64110;SDS011;50401;48.188;11.566;2022-07-23T12:36:16;12.85;;;8.38;;
64110;SDS011;50401;48.188;11.566;2022-07-23T12:38:42;14.35;;;8.65;;
64110;SDS011;50401;48.188;11.566;2022-07-23T12:41:12;14.02;;;8.20;;
64110;SDS011;50401;48.188;11.566;2022-07-23T12:43:40;19.58;;;8.63;;
64110;SDS011;50401;48.188;11.566;2022-07-23T12:46:09;12.77;;;8.50;;
64110;SDS011;50401;48.188;11.566;2022-07-23T12:55:26;15.68;;;8.13;;
64110;SDS011;50401;48.188;11.566;2022-07-23T12:57:52;12.05;;;8.20;;
64110;SDS011;50401;48.188;11.566;2022-07-23T13:00:31;10.70;;;7.93;;
64110;SDS011;50401;48.188;11.566;2022-07-23T13:02:57;16.95;;;8.15;;
64110;SDS011;50401;48.188;11.566;2022-07-23T13:05:23;12.80;;;8.43;;
64110;SDS011;50401;48.188;11.566;2022-07-23T13:07:48;13.75;;;9.18;;
64110;SDS011;50401;48.188;11.566;2022-07-23T13:10:13;15.57;;;8.25;;
64110;SDS011;50401;48.188;11.566;2022-07-23T13:12:39;11.30;;;8.45;;
64110;SDS011;50401;48.188;11.566;2022-07-23T13:15:04;12.75;;;7.80;;
64110;SDS011;50401;48.188;11.566;2022-07-23T13:17:31;20.23;;;9.57;;
64110;SDS011;50401;48.188;11.566;2022-07-23T13:19:56;14.98;;;8.43;;
64110;SDS011;50401;48.188;11.566;2022-07-23T13:22:21;12.07;;;9.07;;
64110;SDS011;50401;48.188;11.566;2022-07-23T13:24:47;10.80;;;8.00;;
64110;SDS011;50401;48.188;11.566;2022-07-23T13:27:12;14.77;;;8.77;;
64110;SDS011;50401;48.188;11.566;2022-07-23T13:29:37;11.18;;;8.25;;
64110;SDS011;50401;48.188;11.566;2022-07-23T13:32:03;18.02;;;9.52;;
64110;SDS011;50401;48.188;11.566;2022-07-23T13:34:29;12.30;;;9.30;;
64110;SDS011;50401;48.188;11.566;2022-07-23T13:36:54;14.65;;;9.00;;
64110;SDS011;50401;48.188;11.566;2022-07-23T13:39:20;14.23;;;8.20;;
64110;SDS011;50401;48.188;11.566;2022-07-23T13:41:46;11.75;;;8.60;;
64110;SDS011;50401;48.188;11.566;2022-07-23T13:44:11;15.25;;;8.45;;
64110;SDS011;50401;48.188;11.566;2022-07-23T13:46:36;13.75;;;8.90;;
64110;SDS011;50401;48.188;11.566;2022-07-23T13:49:02;13.85;;;8.90;;
64110;SDS011;50401;48.188;11.566;2022-07-23T13:51:27;15.65;;;9.13;;
64110;SDS011;50401;48.188;11.566;2022-07-23T13:53:53;13.50;;;8.90;;
64110;SDS011;50401;48.188;11.566;2022-07-23T13:56:19;19.23;;;10.32;;
64110;SDS011;50401;48.188;11.566;2022-07-23T13:58:45;14.13;;;9.70;;
64110;SDS011;50401;48.188;11.566;2022-07-23T14:01:10;18.30;;;9.52;;
64110;SDS011;50401;48.188;11.566;2022-07-23T14:03:35;12.23;;;9.10;;
64110;SDS011;50401;48.188;11.566;2022-07-23T14:06:01;12.02;;;8.63;;
64110;SDS011;50401;48.188;11.566;2022-07-23T14:08:26;11.02;;;9.00;;
64110;SDS011;50401;48.188;11.566;2022-07-23T14:10:52;14.80;;;9.35;;
64110;SDS011;50401;48.188;11.566;2022-07-23T14:13:17;14.90;;;8.63;;
64110;SDS011;50401;48.188;11.566;2022-07-23T14:15:43;20.60;;;9.18;;
64110;SDS011;50401;48.188;11.566;2022-07-23T14:18:08;14.57;;;9.40;;
64110;SDS011;50401;48.188;11.566;2022-07-23T14:20:34;16.00;;;8.73;;
64110;SDS011;50401;48.188;11.566;2022-07-23T14:22:59;13.63;;;9.00;;
64110;SDS011;50401;48.188;11.566;2022-07-23T14:25:26;11.38;;;8.98;;
64110;SDS011;50401;48.188;11.566;2022-07-23T14:27:52;13.20;;;9.57;;
64110;SDS011;50401;48.188;11.566;2022-07-23T14:30:18;11.05;;;9.00;;
64110;SDS011;50401;48.188;11.566;2022-07-23T14:32:43;15.65;;;9.48;;
64110;SDS011;50401;48.188;11.566;2022-07-23T14:35:09;13.20;;;9.27;;
64110;SDS011;50401;48.188;11.566;2022-07-23T14:37:34;15.32;;;8.77;;
64110;SDS011;50401;48.188;11.566;2022-07-23T14:40:00;12.45;;;9.10;;
64110;SDS011;50401;48.188;11.566;2022-07-23T14:42:25;15.68;;;9.43;;
64110;SDS011;50401;48.188;11.566;2022-07-23T14:44:51;14.32;;;8.68;;
64110;SDS011;50401;48.188;11.566;2022-07-23T14:47:16;15.13;;;9.15;;
64110;SDS011;50401;48.188;11.566;2022-07-23T14:49:42;13.82;;;8.95;;
64110;SDS011;50401;48.188;11.566;2022-07-23T14:52:07;15.15;;;8.73;;
64110;SDS011;50401;48.188;11.566;2022-07-23T14:54:33;14.38;;;9.65;;
64110;SDS011;50401;48.188;11.566;2022-07-23T14:56:59;12.30;;;9.50;;
64110;SDS011;50401;48.188;11.566;2022-07-23T14:59:25;13.82;;;8.93;;
64110;SDS011;50401;48.188;11.566;2022-07-23T15:01:51;14.98;;;8.45;;
64110;SDS011;50401;48.188;11.566;2022-07-23T15:04:18;13.48;;;8.77;;
64110;SDS011;50401;48.188;11.566;2022-07-23T15:06:43;14.88;;;9.13;;
64110;SDS011;50401;48.188;11.566;2022-07-23T15:09:09;15.60;;;9.20;;
64110;SDS011;50401;48.188;11.566;2022-07-23T15:11:35;14.35;;;8.75;;
64110;SDS011;50401;48.188;11.566;2022-07-23T15:14:03;19.17;;;9.13;;
64110;SDS011;50401;48.188;11.566;2022-07-23T15:16:29;14.52;;;8.70;;
64110;SDS011;50401;48.188;11.566;2022-07-23T15:18:55;11.95;;;8.68;;